Lompoc, California
Current Conditions -  °F | °C
As of 12:15 PM on Friday 28 Nov 2014 (Local Time) from KLPC Reporting Station
Clear Clear  
Wind Chill: 68°   Ceiling: Unl
Heat Index: 68°   Visibility: 10mi
Dew Point: 45°   Wind: 10mph
Humidity: 43%   Direction: 240°WSW
Pressure: 29.98"   Gusts: NA
Location:  34.64°N, 120.45°W
Report Text: KLPC 282015Z AUTO 24009KT 10SM CLR 20/07 A2998 RMK AO1
Loading
Personal Weather Stations






























Interactive Weather Map New forecast layout! Learn more

10-Day Weather Forecast

Advertisements
Track Severe Weather on mobile